Time,TemperatureF,DewpointF,PressureIn,WindDirection,WindDirectionDegrees,WindSpeedMPH,WindSpeedGustMPH,Humidity,HourlyPrecipIn,Conditions,Clouds,dailyrainin,SoftwareType,DateUTC
2013-03-06 00:07:00,-999.0,-99.9,29.94,ESE,116,0.0,-999.0,-999,-99.99,,,0.00,weatherlink.com 1.10,2013-03-06 05:07:00,
2013-03-06 00:22:00,-999.0,-99.9,29.94,ESE,116,0.0,-999.0,-999,-99.99,,,0.00,weatherlink.com 1.10,2013-03-06 05:22:00,
2013-03-06 00:37:00,-999.0,-99.9,29.93,ESE,116,0.0,-999.0,-999,-99.99,,,0.00,weatherlink.com 1.10,2013-03-06 05:37:00,
2013-03-06 00:52:00,-999.0,-99.9,29.94,ESE,116,0.0,-999.0,-999,-99.99,,,0.00,weatherlink.com 1.10,2013-03-06 05:52:00,
2013-03-06 01:07:00,-999.0,-99.9,29.93,ESE,116,0.0,-999.0,-999,-99.99,,,0.00,weatherlink.com 1.10,2013-03-06 06:07:00,
2013-03-06 01:22:00,-999.0,-99.9,29.93,ESE,116,0.0,-999.0,-999,-99.99,,,0.00,weatherlink.com 1.10,2013-03-06 06:22:00,
2013-03-06 01:37:00,-999.0,-99.9,29.92,East,83,3.0,-999.0,-999,-99.99,,,0.00,weatherlink.com 1.10,2013-03-06 06:37:00,
2013-03-06 01:52:00,-999.0,-99.9,29.92,ENE,72,4.0,-999.0,-999,-99.99,,,0.00,weatherlink.com 1.10,2013-03-06 06:52:00,
2013-03-06 02:07:00,-999.0,-99.9,29.91,ENE,76,5.0,-999.0,-999,-99.99,,,0.00,weatherlink.com 1.10,2013-03-06 07:07:00,
2013-03-06 02:22:00,-999.0,-99.9,29.91,East,83,4.0,-999.0,-999,-99.99,,,0.00,weatherlink.com 1.10,2013-03-06 07:22:00,
2013-03-06 02:37:00,-999.0,-99.9,29.91,ENE,68,2.0,-999.0,-999,-99.99,,,0.00,weatherlink.com 1.10,2013-03-06 07:37:00,
2013-03-06 02:52:00,-999.0,-99.9,29.91,ENE,65,4.0,-999.0,-999,-99.99,,,0.00,weatherlink.com 1.10,2013-03-06 07:52:00,
2013-03-06 03:07:00,-999.0,-99.9,29.91,ESE,102,3.0,-999.0,-999,-99.99,,,0.00,weatherlink.com 1.10,2013-03-06 08:07:00,
2013-03-06 03:22:00,-999.0,-99.9,29.89,ENE,71,8.0,-999.0,-999,-99.99,,,0.00,weatherlink.com 1.10,2013-03-06 08:22:00,
2013-03-06 03:37:00,-999.0,-99.9,29.89,ENE,74,6.0,-999.0,-999,-99.99,,,0.00,weatherlink.com 1.10,2013-03-06 08:37:00,
2013-03-06 03:53:00,-999.0,-99.9,29.89,East,85,5.0,-999.0,-999,-99.99,,,0.00,weatherlink.com 1.10,2013-03-06 08:53:00,
2013-03-06 04:07:00,-999.0,-99.9,29.89,ENE,76,5.0,-999.0,-999,-99.99,,,0.00,weatherlink.com 1.10,2013-03-06 09:07:00,
2013-03-06 04:22:00,-999.0,-99.9,29.88,ENE,66,6.0,-999.0,-999,-99.99,,,0.00,weatherlink.com 1.10,2013-03-06 09:22:00,
2013-03-06 04:37:00,-999.0,-99.9,29.88,NE,46,10.0,-999.0,-999,-99.99,,,0.00,weatherlink.com 1.10,2013-03-06 09:37:00,
2013-03-06 04:52:00,-999.0,-99.9,29.87,East,101,6.0,-999.0,-999,-99.99,,,0.00,weatherlink.com 1.10,2013-03-06 09:52:00,
2013-03-06 05:07:00,-999.0,-99.9,29.87,East,79,10.0,-999.0,-999,-99.99,,,0.00,weatherlink.com 1.10,2013-03-06 10:07:00,
2013-03-06 05:22:00,-999.0,-99.9,29.87,ENE,77,10.0,-999.0,-999,-99.99,,,0.00,weatherlink.com 1.10,2013-03-06 10:22:00,
2013-03-06 05:37:00,-999.0,-99.9,29.87,ENE,57,10.0,-999.0,-999,-99.99,,,0.00,weatherlink.com 1.10,2013-03-06 10:37:00,
2013-03-06 05:52:00,-999.0,-99.9,29.87,ENE,64,11.0,-999.0,-999,-99.99,,,0.00,weatherlink.com 1.10,2013-03-06 10:52:00,
2013-03-06 06:07:00,-999.0,-99.9,29.87,ENE,69,14.0,-999.0,-999,-99.99,,,0.00,weatherlink.com 1.10,2013-03-06 11:07:00,
2013-03-06 06:22:00,-999.0,-99.9,29.87,ENE,67,16.0,-999.0,-999,-99.99,,,0.00,weatherlink.com 1.10,2013-03-06 11:22:00,
2013-03-06 06:37:00,-999.0,-99.9,29.87,East,100,11.0,-999.0,-999,-99.99,,,0.00,weatherlink.com 1.10,2013-03-06 11:37:00,
2013-03-06 06:52:00,-999.0,-99.9,29.86,ENE,68,11.0,-999.0,-999,-99.99,,,0.00,weatherlink.com 1.10,2013-03-06 11:52:00,
2013-03-06 07:07:00,-999.0,-99.9,29.86,ENE,57,12.0,-999.0,-999,-99.99,,,0.00,weatherlink.com 1.10,2013-03-06 12:07:00,
2013-03-06 07:22:00,-999.0,-99.9,29.86,ENE,78,9.0,-999.0,-999,-99.99,,,0.00,weatherlink.com 1.10,2013-03-06 12:22:00,
2013-03-06 07:37:00,38.2,35.0,29.86,East,95,5.0,-999.0,88,-99.99,,,0.00,weatherlink.com 1.10,2013-03-06 12:37:00,
2013-03-06 07:52:00,38.5,35.0,29.86,East,93,16.0,-999.0,87,-99.99,,,0.00,weatherlink.com 1.10,2013-03-06 12:52:00,
2013-03-06 08:07:00,38.6,35.0,29.87,East,79,15.0,-999.0,87,-99.99,,,0.00,weatherlink.com 1.10,2013-03-06 13:07:00,
2013-03-06 08:22:00,38.9,35.0,29.86,East,99,12.0,-999.0,87,-99.99,,,0.00,weatherlink.com 1.10,2013-03-06 13:22:00,
2013-03-06 08:37:00,39.2,36.0,29.87,East,83,12.0,-999.0,87,-99.99,,,0.00,weatherlink.com 1.10,2013-03-06 13:37:00,
2013-03-06 08:52:00,39.3,36.0,29.87,East,99,14.0,-999.0,86,-99.99,,,0.00,weatherlink.com 1.10,2013-03-06 13:52:00,
2013-03-06 09:07:00,39.8,36.0,29.86,ENE,71,11.0,-999.0,86,-99.99,,,0.00,weatherlink.com 1.10,2013-03-06 14:07:00,
2013-03-06 09:22:00,40.2,36.0,29.85,East,86,13.0,-999.0,84,-99.99,,,0.00,weatherlink.com 1.10,2013-03-06 14:22:00,
2013-03-06 09:37:00,40.5,36.0,29.86,East,79,22.0,-999.0,84,-99.99,,,0.00,weatherlink.com 1.10,2013-03-06 14:37:00,
2013-03-06 09:52:00,40.2,35.0,29.86,East,83,15.0,-999.0,83,-99.99,,,0.00,weatherlink.com 1.10,2013-03-06 14:52:00,
2013-03-06 10:07:00,39.5,36.0,29.86,East,84,6.0,-999.0,86,-99.99,,,0.00,weatherlink.com 1.10,2013-03-06 15:07:00,
2013-03-06 10:22:00,39.2,36.0,29.86,ENE,64,15.0,-999.0,87,-99.99,,,0.00,weatherlink.com 1.10,2013-03-06 15:22:00,
2013-03-06 10:37:00,39.2,36.0,29.85,East,83,17.0,-999.0,88,-99.99,,,0.00,weatherlink.com 1.10,2013-03-06 15:37:00,
2013-03-06 10:52:00,39.5,36.0,29.85,ESE,112,21.0,-999.0,87,-99.99,,,0.00,weatherlink.com 1.10,2013-03-06 15:52:00,
2013-03-06 11:07:00,39.6,36.0,29.86,ENE,76,30.0,-999.0,85,-99.99,,,0.00,weatherlink.com 1.10,2013-03-06 16:07:00,
2013-03-06 11:22:00,39.9,36.0,29.86,ENE,69,21.0,-999.0,84,-99.99,,,0.00,weatherlink.com 1.10,2013-03-06 16:22:00,
2013-03-06 11:37:00,41.5,36.0,29.86,ENE,68,13.0,-999.0,80,-99.99,,,0.00,weatherlink.com 1.10,2013-03-06 16:37:00,
2013-03-06 11:52:00,41.9,35.0,29.85,NE,48,22.0,-999.0,75,-99.99,,,0.00,weatherlink.com 1.10,2013-03-06 16:52:00,
2013-03-06 12:07:00,41.8,34.0,29.84,ESE,111,12.0,-999.0,74,-99.99,,,0.00,weatherlink.com 1.10,2013-03-06 17:07:00,
2013-03-06 12:22:00,41.6,34.0,29.83,ENE,66,13.0,-999.0,74,-99.99,,,0.00,weatherlink.com 1.10,2013-03-06 17:22:00,
2013-03-06 12:37:00,41.6,34.0,29.83,ENE,73,17.0,-999.0,73,-99.99,,,0.00,weatherlink.com 1.10,2013-03-06 17:37:00,
2013-03-06 12:52:00,42.3,34.0,29.82,ESE,108,15.0,-999.0,71,-99.99,,,0.00,weatherlink.com 1.10,2013-03-06 17:52:00,
2013-03-06 13:07:00,42.1,33.0,29.82,ENE,76,19.0,-999.0,70,-99.99,,,0.00,weatherlink.com 1.10,2013-03-06 18:07:00,
2013-03-06 13:22:00,41.9,33.0,29.81,East,95,23.0,-999.0,72,-99.99,,,0.00,weatherlink.com 1.10,2013-03-06 18:22:00,
2013-03-06 13:37:00,41.6,33.0,29.81,East,94,13.0,-999.0,72,-99.99,,,0.00,weatherlink.com 1.10,2013-03-06 18:37:00,
2013-03-06 13:52:00,41.3,33.0,29.81,ENE,64,15.0,-999.0,72,-99.99,,,0.00,weatherlink.com 1.10,2013-03-06 18:52:00,
2013-03-06 14:07:00,41.1,33.0,29.81,NE,35,13.0,-999.0,74,-99.99,,,0.00,weatherlink.com 1.10,2013-03-06 19:07:00,
2013-03-06 14:22:00,40.9,34.0,29.81,NE,38,19.0,-999.0,75,-99.99,,,0.00,weatherlink.com 1.10,2013-03-06 19:22:00,
2013-03-06 14:37:00,40.9,34.0,29.80,ENE,73,20.0,-999.0,75,-99.99,,,0.00,weatherlink.com 1.10,2013-03-06 19:37:00,
2013-03-06 15:22:00,40.8,34.0,29.79,ENE,58,19.0,-999.0,76,-99.99,,,0.00,weatherlink.com 1.10,2013-03-06 20:22:00,
2013-03-06 15:37:00,40.8,34.0,29.79,NE,47,12.0,-999.0,76,-99.99,,,0.00,weatherlink.com 1.10,2013-03-06 20:37:00,
2013-03-06 15:52:00,40.8,34.0,29.79,ENE,66,20.0,-999.0,77,-99.99,,,0.00,weatherlink.com 1.10,2013-03-06 20:52:00,
2013-03-06 16:22:00,-999.0,-99.9,29.79,NNE,26,12.0,-999.0,-999,-99.99,,,0.00,weatherlink.com 1.10,2013-03-06 21:22:00,
2013-03-06 16:37:00,-999.0,-99.9,29.78,NE,40,11.0,-999.0,-999,-99.99,,,0.00,weatherlink.com 1.10,2013-03-06 21:37:00,
2013-03-06 16:52:00,-999.0,-99.9,29.78,ENE,73,16.0,-999.0,-999,-99.99,,,0.00,weatherlink.com 1.10,2013-03-06 21:52:00,
2013-03-06 17:07:00,-999.0,-99.9,29.79,NE,47,14.0,-999.0,-999,-99.99,,,0.00,weatherlink.com 1.10,2013-03-06 22:07:00,
2013-03-06 17:22:00,-999.0,-99.9,29.78,NE,55,12.0,-999.0,-999,-99.99,,,0.00,weatherlink.com 1.10,2013-03-06 22:22:00,
2013-03-06 17:37:00,-999.0,-99.9,29.78,NNE,26,12.0,-999.0,-999,-99.99,,,0.00,weatherlink.com 1.10,2013-03-06 22:37:00,
2013-03-06 17:52:00,-999.0,-99.9,29.78,East,90,19.0,-999.0,-999,-99.99,,,0.00,weatherlink.com 1.10,2013-03-06 22:52:00,
2013-03-06 18:08:00,-999.0,-99.9,29.78,NNE,28,11.0,-999.0,-999,-99.99,,,0.00,weatherlink.com 1.10,2013-03-06 23:08:00,
2013-03-06 18:22:00,-999.0,-99.9,29.79,ENE,57,10.0,-999.0,-999,-99.99,,,0.00,weatherlink.com 1.10,2013-03-06 23:22:00,
2013-03-06 18:38:00,-999.0,-99.9,29.79,North,6,11.0,-999.0,-999,-99.99,,,0.00,weatherlink.com 1.10,2013-03-06 23:38:00,
2013-03-06 18:52:00,-999.0,-99.9,29.80,ENE,78,19.0,-999.0,-999,-99.99,,,0.00,weatherlink.com 1.10,2013-03-06 23:52:00,
2013-03-06 19:07:00,-999.0,-99.9,29.80,NE,38,13.0,-999.0,-999,-99.99,,,0.00,weatherlink.com 1.10,2013-03-07 00:07:00,
2013-03-06 19:23:00,-999.0,-99.9,29.80,NNE,20,16.0,-999.0,-999,-99.99,,,0.00,weatherlink.com 1.10,2013-03-07 00:23:00,
2013-03-06 19:38:00,-999.0,-99.9,29.79,NE,43,19.0,-999.0,-999,-99.99,,,0.00,weatherlink.com 1.10,2013-03-07 00:38:00,
2013-03-06 19:53:00,-999.0,-99.9,29.80,ENE,62,21.0,-999.0,-999,-99.99,,,0.00,weatherlink.com 1.10,2013-03-07 00:53:00,
2013-03-06 20:08:00,-999.0,-99.9,29.79,ENE,65,14.0,-999.0,-999,-99.99,,,0.00,weatherlink.com 1.10,2013-03-07 01:08:00,
2013-03-06 20:23:00,-999.0,-99.9,29.80,NE,50,18.0,-999.0,-999,-99.99,,,0.00,weatherlink.com 1.10,2013-03-07 01:23:00,
2013-03-06 20:38:00,-999.0,-99.9,29.79,ENE,63,16.0,-999.0,-999,-99.99,,,0.00,weatherlink.com 1.10,2013-03-07 01:38:00,
2013-03-06 20:53:00,-999.0,-99.9,29.80,NNE,17,20.0,-999.0,-999,-99.99,,,0.00,weatherlink.com 1.10,2013-03-07 01:53:00,
2013-03-06 21:08:00,-999.0,-99.9,29.80,North,7,12.0,-999.0,-999,-99.99,,,0.00,weatherlink.com 1.10,2013-03-07 02:08:00,
2013-03-06 21:23:00,-999.0,-99.9,29.80,NE,38,18.0,-999.0,-999,-99.99,,,0.00,weatherlink.com 1.10,2013-03-07 02:23:00,
2013-03-06 21:38:00,-999.0,-99.9,29.80,NNE,24,9.0,-999.0,-999,-99.99,,,0.00,weatherlink.com 1.10,2013-03-07 02:38:00,
2013-03-06 21:53:00,-999.0,-99.9,29.80,NNE,26,12.0,-999.0,-999,-99.99,,,0.00,weatherlink.com 1.10,2013-03-07 02:53:00,
2013-03-06 22:08:00,-999.0,-99.9,29.80,NE,40,15.0,-999.0,-999,-99.99,,,0.00,weatherlink.com 1.10,2013-03-07 03:08:00,
2013-03-06 22:23:00,-999.0,-99.9,29.80,North,2,18.0,-999.0,-999,-99.99,,,0.00,weatherlink.com 1.10,2013-03-07 03:23:00,
2013-03-06 22:38:00,-999.0,-99.9,29.80,NE,48,18.0,-999.0,-999,-99.99,,,0.00,weatherlink.com 1.10,2013-03-07 03:38:00,
2013-03-06 22:53:00,-999.0,-99.9,29.80,NE,41,17.0,-999.0,-999,-99.99,,,0.00,weatherlink.com 1.10,2013-03-07 03:53:00,
2013-03-06 23:08:00,-999.0,-99.9,29.80,ENE,61,18.0,-999.0,-999,-99.99,,,0.00,weatherlink.com 1.10,2013-03-07 04:08:00,
2013-03-06 23:23:00,-999.0,-99.9,29.79,NNE,31,12.0,-999.0,-999,-99.99,,,0.00,weatherlink.com 1.10,2013-03-07 04:23:00,
2013-03-06 23:38:00,-999.0,-99.9,29.79,North,6,20.0,-999.0,-999,-99.99,,,0.00,weatherlink.com 1.10,2013-03-07 04:38:00,
2013-03-06 23:53:00,-999.0,-99.9,29.79,NE,40,11.0,-999.0,-999,-99.99,,,0.00,weatherlink.com 1.10,2013-03-07 04:53:00,